Time;durP1;ratioP1;P1;durP2;ratioP2;P2;SDS_P1;SDS_P2;PMS_P1;PMS_P2;Temp;Humidity;BMP_temperature;BMP_pressure;BME280_temperature;BME280_humidity;BME280_pressure;Samples;Min_cycle;Max_cycle;Signal;HPM_P1;HPM_P2
2022/04/29 00:00:34;;;;;;;6.00;1.52;;;;;;;10.68;70.08;95143.44;5033426;28;20200;-74
2022/04/29 00:03:01;;;;;;;4.10;1.83;;;;;;;10.68;70.13;95140.72;5025406;28;20201;-77
2022/04/29 00:05:28;;;;;;;1.35;1.13;;;;;;;10.65;70.32;95135.16;5027737;28;20201;-76
2022/04/29 00:07:55;;;;;;;3.83;2.65;;;;;;;10.68;70.14;95129.09;5033419;28;20231;-77
2022/04/29 00:10:22;;;;;;;2.20;1.70;;;;;;;10.60;70.37;95133.38;5032948;28;20224;-77
2022/04/29 00:12:49;;;;;;;3.53;1.75;;;;;;;10.57;70.32;95134.00;5033587;28;20215;-76
2022/04/29 00:15:19;;;;;;;1.48;1.33;;;;;;;10.57;70.48;95125.88;5033326;28;20216;-76
2022/04/29 00:17:46;;;;;;;2.85;1.73;;;;;;;10.57;70.31;95125.88;5033569;28;20215;-75
2022/04/29 00:20:14;;;;;;;3.50;1.60;;;;;;;10.53;70.38;95133.03;5033075;28;20265;-77
2022/04/29 00:22:44;;;;;;;3.67;2.28;;;;;;;10.55;70.57;95132.72;5032571;28;20215;-76
2022/04/29 00:25:11;;;;;;;3.28;2.25;;;;;;;10.56;70.36;95128.91;5047414;28;20215;-76
2022/04/29 00:27:40;;;;;;;3.00;2.65;;;;;;;10.51;70.55;95126.34;5042786;28;20616;-75
2022/04/29 00:30:08;;;;;;;4.55;2.70;;;;;;;10.43;70.96;95129.81;5032576;28;20303;-74
2022/04/29 00:32:36;;;;;;;1.88;1.52;;;;;;;10.43;71.00;95125.19;5033108;28;20208;-75
2022/04/29 00:35:03;;;;;;;5.00;2.25;;;;;;;10.43;71.34;95125.19;5046393;28;20213;-77
2022/04/29 00:37:31;;;;;;;1.90;1.20;;;;;;;10.43;71.14;95119.78;5044078;28;20208;-76
2022/04/29 00:39:58;;;;;;;2.65;1.92;;;;;;;10.41;71.22;95122.00;5034392;28;20649;-77
2022/04/29 00:42:25;;;;;;;3.45;1.33;;;;;;;10.45;71.16;95122.97;5032477;28;20205;-79
2022/04/29 00:44:52;;;;;;;2.47;1.65;;;;;;;10.35;71.11;95125.97;5031678;28;20244;-75
2022/04/29 00:47:20;;;;;;;4.32;2.45;;;;;;;10.33;71.21;95125.50;5032064;28;20633;-75
2022/04/29 00:49:50;;;;;;;3.17;1.52;;;;;;;10.36;71.11;95114.03;5031980;28;20227;-73
2022/04/29 00:52:19;;;;;;;2.38;1.83;;;;;;;10.32;71.35;95116.56;5032680;28;20563;-70
2022/04/29 00:54:55;;;;;;;2.15;1.90;;;;;;;10.38;71.28;95117.22;5031463;28;20209;-76
2022/04/29 00:57:26;;;;;;;3.70;2.38;;;;;;;10.40;70.91;95120.41;5031651;28;20200;-77
2022/04/29 01:00:00;;;;;;;2.60;1.48;;;;;;;10.40;70.68;95114.19;5031699;28;20224;-74
2022/04/29 01:02:27;;;;;;;1.90;1.67;;;;;;;10.45;70.81;95117.56;5028591;28;20200;-77
2022/04/29 01:05:05;;;;;;;3.83;1.77;;;;;;;10.43;70.59;95108.94;5023169;28;20692;-75
2022/04/29 01:07:34;;;;;;;4.47;3.05;;;;;;;10.46;70.46;95108.31;5032473;28;20354;-77
2022/04/29 01:10:01;;;;;;;2.67;1.48;;;;;;;10.41;70.67;95105.75;5031700;28;20232;-72
2022/04/29 01:12:32;;;;;;;3.72;1.77;;;;;;;10.43;70.64;95108.16;5031740;28;20686;-75
2022/04/29 01:15:04;;;;;;;3.75;2.70;;;;;;;10.42;70.81;95107.34;5045443;28;20207;-76
2022/04/29 01:17:33;;;;;;;2.15;1.63;;;;;;;10.40;70.54;95104.16;5031997;28;20200;-78
2022/04/29 01:20:03;;;;;;;7.25;1.80;;;;;;;10.48;70.39;95100.69;5031797;28;20262;-75
2022/04/29 01:22:32;;;;;;;3.65;2.10;;;;;;;10.47;70.61;95107.22;5031504;28;20203;-77
2022/04/29 01:24:59;;;;;;;2.80;1.65;;;;;;;10.44;70.30;95099.72;5041604;28;20218;-75
2022/04/29 01:27:26;;;;;;;2.80;1.80;;;;;;;10.41;70.88;95103.03;5031820;28;20207;-76
2022/04/29 01:29:59;;;;;;;3.10;2.30;;;;;;;10.43;70.74;95098.13;5031967;28;20215;-78
2022/04/29 01:32:26;;;;;;;5.15;2.90;;;;;;;10.46;70.19;95097.50;5031612;28;20857;-75
2022/04/29 01:34:53;;;;;;;5.80;3.47;;;;;;;10.47;70.44;95099.09;5031868;28;20285;-76
2022/04/29 01:37:20;;;;;;;2.95;2.00;;;;;;;10.41;70.61;95097.63;5031949;28;20204;-75
2022/04/29 01:39:49;;;;;;;4.32;2.28;;;;;;;10.42;70.66;95091.09;5031449;28;20679;-75
2022/04/29 01:42:15;;;;;;;2.17;1.20;;;;;;;10.46;70.60;95094.78;5031708;28;20597;-76
2022/04/29 01:44:42;;;;;;;3.28;2.53;;;;;;;10.46;70.82;95096.69;5031392;28;20232;-76
2022/04/29 01:47:09;;;;;;;2.97;2.00;;;;;;;10.45;70.73;95090.47;5031504;28;20232;-77
2022/04/29 01:49:36;;;;;;;3.17;2.35;;;;;;;10.39;70.94;95097.13;5031295;28;20197;-76
2022/04/29 01:52:03;;;;;;;3.50;2.30;;;;;;;10.47;70.74;95099.09;5030993;28;20662;-74
2022/04/29 01:54:30;;;;;;;3.65;2.42;;;;;;;10.37;71.09;95095.88;5031184;28;20228;-72
2022/04/29 01:56:59;;;;;;;3.50;1.63;;;;;;;10.36;71.28;95102.41;5030825;28;20295;-76
2022/04/29 01:59:26;;;;;;;1.35;1.15;;;;;;;10.35;71.72;95112.44;5030921;28;20732;-75
2022/04/29 02:01:53;;;;;;;2.63;2.20;;;;;;;10.25;71.67;95101.91;5031274;28;20204;-77
2022/04/29 02:04:19;;;;;;;2.72;1.85;;;;;;;10.27;71.51;95105.88;5030695;28;20212;-77
2022/04/29 02:06:46;;;;;;;3.88;2.55;;;;;;;10.34;71.49;95100.00;5031002;28;20317;-77
2022/04/29 02:09:13;;;;;;;3.28;1.65;;;;;;;10.32;71.44;95099.53;5031018;28;20224;-79
2022/04/29 02:12:03;;;;;;;2.88;2.10;;;;;;;10.26;71.79;95098.06;5030925;28;20282;-75
2022/04/29 02:14:29;;;;;;;2.58;1.50;;;;;;;10.22;71.96;95107.94;5030993;28;20659;-76
2022/04/29 02:16:57;;;;;;;1.92;1.58;;;;;;;10.25;71.82;95097.25;5030835;28;20247;-78
2022/04/29 02:19:24;;;;;;;2.83;1.58;;;;;;;10.30;71.45;95097.13;5031121;28;20315;-78
2022/04/29 02:21:51;;;;;;;2.83;1.35;;;;;;;10.30;71.64;95101.75;5031215;28;20570;-77
2022/04/29 02:24:18;;;;;;;5.75;2.03;;;;;;;10.28;71.73;95106.66;5037581;28;20250;-77
2022/04/29 02:26:45;;;;;;;4.28;2.53;;;;;;;10.26;72.12;95100.75;5050521;28;20210;-77
2022/04/29 02:29:12;;;;;;;3.53;2.40;;;;;;;10.20;72.52;95105.53;5042256;28;20204;-76
2022/04/29 02:31:40;;;;;;;2.75;1.90;;;;;;;10.22;72.65;95116.06;5035071;28;20595;-76
2022/04/29 02:34:07;;;;;;;4.75;2.95;;;;;;;10.20;72.72;95115.56;5034764;28;20207;-73
2022/04/29 02:36:34;;;;;;;2.55;1.92;;;;;;;10.11;73.09;95122.84;5034779;28;20201;-77
2022/04/29 02:39:03;;;;;;;4.38;1.77;;;;;;;10.05;73.52;95110.53;5034996;28;20293;-74
2022/04/29 02:41:30;;;;;;;1.63;1.52;;;;;;;10.03;73.84;95115.47;5034878;28;20200;-75
2022/04/29 02:43:56;;;;;;;5.20;3.38;;;;;;;10.03;74.05;95115.47;5034681;28;20259;-76
2022/04/29 02:46:23;;;;;;;2.63;2.13;;;;;;;10.06;74.18;95114.84;5034856;28;20204;-74
2022/04/29 02:48:52;;;;;;;1.35;1.20;;;;;;;10.06;74.13;95117.56;5034869;28;20273;-76
2022/04/29 02:51:18;;;;;;;3.00;1.55;;;;;;;10.03;74.37;95115.47;5034557;28;20204;-76
2022/04/29 02:53:45;;;;;;;1.58;1.48;;;;;;;10.04;74.28;95114.34;5034320;28;20207;-76
2022/04/29 02:56:12;;;;;;;5.13;2.85;;;;;;;10.08;74.10;95112.63;5034780;28;20204;-75
2022/04/29 02:58:39;;;;;;;1.50;1.40;;;;;;;10.11;73.86;95117.44;5034507;28;20204;-77
2022/04/29 03:01:07;;;;;;;3.17;2.30;;;;;;;10.13;73.68;95113.25;5034097;28;20208;-77
2022/04/29 03:03:34;;;;;;;3.63;2.08;;;;;;;10.18;73.53;95113.16;5021509;28;20630;-75
2022/04/29 03:06:02;;;;;;;3.75;1.48;;;;;;;10.15;73.45;95111.06;5033329;28;20227;-73
2022/04/29 03:08:29;;;;;;;3.53;2.20;;;;;;;10.20;73.86;95126.41;5034000;28;20796;-76
2022/04/29 03:10:57;;;;;;;4.65;2.13;;;;;;;10.10;74.32;95121.25;5034403;28;20220;-77
2022/04/29 03:13:23;;;;;;;2.33;1.48;;;;;;;10.09;74.40;95115.03;5034429;28;20212;-74
2022/04/29 03:15:50;;;;;;;2.00;1.50;;;;;;;10.10;74.62;95126.66;5034057;28;20201;-78
2022/04/29 03:18:21;;;;;;;6.43;1.63;;;;;;;10.06;74.54;95120.25;5046752;28;20211;-77
2022/04/29 03:20:53;;;;;;;2.85;1.77;;;;;;;10.07;74.65;95121.84;5041628;28;20624;-76
2022/04/29 03:23:22;;;;;;;2.15;1.23;;;;;;;10.11;74.36;95123.63;5038268;28;20604;-71
2022/04/29 03:25:49;;;;;;;1.67;1.40;;;;;;;10.12;74.43;95121.69;5043905;28;20678;-76
2022/04/29 03:28:16;;;;;;;4.72;1.38;;;;;;;10.17;74.41;95127.00;5033947;28;20834;-75
2022/04/29 03:30:43;;;;;;;4.57;2.15;;;;;;;10.26;74.10;95125.13;5033526;28;20205;-76
2022/04/29 03:33:11;;;;;;;1.90;1.52;;;;;;;10.21;74.35;95123.38;5033845;28;20630;-76
2022/04/29 03:35:42;;;;;;;5.10;2.47;;;;;;;10.24;74.26;95130.09;5033709;28;20204;-76
2022/04/29 03:38:09;;;;;;;2.35;2.10;;;;;;;10.11;74.93;95122.84;5033743;28;20566;-75
2022/04/29 03:40:37;;;;;;;2.75;2.10;;;;;;;10.12;75.00;95121.69;5033984;28;20228;-77
2022/04/29 03:43:05;;;;;;;3.10;2.58;;;;;;;10.14;75.15;95133.03;5033539;28;20262;-76
2022/04/29 03:45:32;;;;;;;1.90;1.50;;;;;;;10.02;75.66;95138.22;5033378;28;20235;-77
2022/04/29 03:47:59;;;;;;;1.55;1.42;;;;;;;10.05;75.47;95129.47;5033396;28;20247;-82
2022/04/29 03:50:28;;;;;;;2.15;1.33;;;;;;;10.11;75.01;95133.66;5033644;28;20697;-78
2022/04/29 03:55:44;;;;;;;2.67;2.28;;;;;;;10.16;75.22;95136.22;5032827;28;20203;-79
2022/04/29 03:58:11;;;;;;;5.78;2.67;;;;;;;10.14;75.28;95138.44;5033657;28;20204;-78
2022/04/29 04:00:38;;;;;;;2.88;1.80;;;;;;;10.08;75.89;95145.91;5033373;28;20224;-78
2022/04/29 04:03:07;;;;;;;3.33;2.30;;;;;;;10.15;75.48;95135.41;5033099;28;20300;-75
2022/04/29 04:05:35;;;;;;;2.85;1.90;;;;;;;10.20;75.57;95132.59;5033201;28;20227;-78
2022/04/29 04:08:01;;;;;;;3.88;2.20;;;;;;;10.22;75.79;95145.84;5033302;28;20216;-77
2022/04/29 04:10:28;;;;;;;2.10;1.38;;;;;;;10.24;75.88;95149.03;5033017;28;20717;-74
2022/04/29 04:12:57;;;;;;;2.92;2.15;;;;;;;10.19;76.72;95146.47;5033132;28;20197;-75
2022/04/29 04:15:24;;;;;;;2.00;1.50;;;;;;;10.19;76.58;95151.88;5033058;28;20235;-73
2022/04/29 04:17:51;;;;;;;3.10;1.50;;;;;;;10.21;76.21;95149.66;5033112;28;20216;-77
2022/04/29 04:20:20;;;;;;;4.18;2.22;;;;;;;10.20;76.16;95153.47;5032837;28;20319;-78
2022/04/29 04:22:47;;;;;;;3.97;2.17;;;;;;;10.22;75.87;95151.25;5033062;28;20788;-78
2022/04/29 04:25:15;;;;;;;1.35;1.25;;;;;;;10.31;75.49;95149.38;5032926;28;20219;-76
2022/04/29 04:27:42;;;;;;;3.38;2.33;;;;;;;10.40;75.17;95152.91;5033344;28;20291;-76
2022/04/29 04:30:12;;;;;;;3.03;1.67;;;;;;;10.49;74.80;95156.47;5032186;28;20203;-80
2022/04/29 04:32:40;;;;;;;4.32;2.40;;;;;;;10.50;74.82;95147.22;5031161;28;20223;-77
2022/04/29 04:35:08;;;;;;;4.95;2.60;;;;;;;10.59;74.39;95145.31;5030624;28;20196;-77
2022/04/29 04:37:35;;;;;;;6.15;2.13;;;;;;;10.68;74.12;95153.47;5032257;28;20702;-76
2022/04/29 04:40:04;;;;;;;4.05;2.47;;;;;;;10.59;74.64;95156.16;5032698;28;20243;-78
2022/04/29 04:42:32;;;;;;;1.92;1.67;;;;;;;10.67;74.51;95162.72;5045977;28;20235;-77
2022/04/29 04:44:58;;;;;;;2.35;1.83;;;;;;;10.54;74.94;95164.44;5019243;28;20236;-77
2022/04/29 04:47:27;;;;;;;3.08;1.75;;;;;;;10.78;74.40;95152.41;5032657;28;20200;-76
2022/04/29 04:49:54;;;;;;;2.72;1.55;;;;;;;11.09;73.33;95147.63;5032569;28;20614;-77
2022/04/29 04:52:21;;;;;;;4.03;2.30;;;;;;;11.12;73.15;95155.16;5032117;28;20211;-77
2022/04/29 04:54:48;;;;;;;5.18;2.05;;;;;;;10.99;73.37;95145.25;5032544;28;20669;-77
2022/04/29 04:57:15;;;;;;;3.67;2.53;;;;;;;11.09;73.29;95153.06;5032030;28;20216;-78
2022/04/29 04:59:42;;;;;;;6.93;2.95;;;;;;;11.15;72.77;95146.38;5032275;28;20251;-75
2022/04/29 05:02:08;;;;;;;6.32;3.25;;;;;;;11.24;72.65;95157.22;5030841;28;20262;-78
2022/04/29 05:04:37;;;;;;;6.15;3.65;;;;;;;11.29;72.94;95141.59;5020184;28;20220;-76
2022/04/29 05:07:04;;;;;;;3.25;2.38;;;;;;;11.31;73.27;95150.22;5031983;28;20197;-77
2022/04/29 05:09:32;;;;;;;4.25;2.85;;;;;;;11.21;73.77;95145.09;5031721;28;20236;-76
2022/04/29 05:11:58;;;;;;;3.17;2.40;;;;;;;11.09;74.24;95139.50;5033633;28;20207;-79
2022/04/29 05:14:25;;;;;;;6.70;3.85;;;;;;;11.07;74.41;95144.44;5042630;28;20200;-76
2022/04/29 05:16:52;;;;;;;5.07;2.63;;;;;;;10.95;74.89;95147.78;5032134;28;20215;-75
2022/04/29 05:19:19;;;;;;;2.35;2.00;;;;;;;11.03;74.66;95143.50;5031751;28;20224;-74
2022/04/29 05:21:47;;;;;;;6.95;4.07;;;;;;;11.05;75.03;95144.00;5031468;28;21648;-76
2022/04/29 05:24:14;;;;;;;4.25;2.72;;;;;;;11.31;74.08;95146.72;5036938;28;20215;-74
2022/04/29 05:26:41;;;;;;;4.93;2.63;;;;;;;11.40;73.35;95152.94;5034300;28;20234;-79
2022/04/29 05:29:08;;;;;;;7.30;3.10;;;;;;;11.47;73.03;95147.03;5031158;28;20254;-77
2022/04/29 05:31:35;;;;;;;3.05;2.15;;;;;;;11.64;72.15;95144.28;5031531;28;20211;-78
2022/04/29 05:34:04;;;;;;;3.65;2.50;;;;;;;11.54;72.54;95144.63;5031443;28;20211;-76
2022/04/29 05:36:31;;;;;;;11.05;3.55;;;;;;;11.56;72.31;95145.09;5030973;28;20287;-78
2022/04/29 05:44:29;;;;;;;5.50;3.42;;;;;;;12.54;69.69;95146.94;5031354;28;20289;-77
2022/04/29 05:46:55;;;;;;;7.03;3.22;;;;;;;12.69;68.86;95139.03;5031527;28;20204;-77
2022/04/29 05:49:22;;;;;;;3.50;1.63;;;;;;;12.41;69.54;95140.59;5031232;28;20300;-79
2022/04/29 05:51:49;;;;;;;3.25;2.10;;;;;;;12.07;70.57;95150.47;5030503;28;20667;-73
2022/04/29 05:54:18;;;;;;;8.20;3.97;;;;;;;11.87;71.33;95145.72;5030934;28;20204;-78
2022/04/29 05:56:47;;;;;;;4.55;2.38;;;;;;;12.04;70.96;95150.31;5031524;28;20204;-74
2022/04/29 05:59:14;;;;;;;6.38;4.18;;;;;;;12.28;70.41;95149.78;5031055;28;20283;-77
2022/04/29 06:01:40;;;;;;;5.20;2.95;;;;;;;12.63;69.74;95151.22;5031241;28;20231;-76
2022/04/29 06:04:07;;;;;;;4.25;2.67;;;;;;;12.55;69.69;95157.50;5029686;28;20236;-72
2022/04/29 06:06:34;;;;;;;4.47;3.03;;;;;;;12.44;69.57;95158.94;5031253;28;20212;-77
2022/04/29 06:09:01;;;;;;;4.20;2.25;;;;;;;12.26;70.13;95165.59;5030913;28;20427;-74
2022/04/29 06:11:30;;;;;;;10.02;3.15;;;;;;;12.23;70.05;95171.66;5030543;28;20605;-77
2022/04/29 06:13:57;;;;;;;2.38;1.58;;;;;;;12.29;69.86;95173.09;5030870;28;20571;-76
2022/04/29 06:16:24;;;;;;;3.25;2.22;;;;;;;12.70;68.75;95170.53;5031026;28;20216;-68
2022/04/29 06:18:51;;;;;;;6.93;3.83;;;;;;;12.77;68.59;95168.09;5030823;28;20283;-73
2022/04/29 06:21:18;;;;;;;8.38;5.78;;;;;;;12.57;68.84;95168.84;5030859;28;20721;-76
2022/04/29 06:23:45;;;;;;;7.72;3.40;;;;;;;12.63;68.63;95169.44;5032996;28;20209;-76
2022/04/29 06:26:12;;;;;;;7.18;2.45;;;;;;;12.71;68.23;95157.75;5038258;28;20200;-76
2022/04/29 06:28:41;;;;;;;2.13;1.73;;;;;;;12.43;69.47;95173.69;5030273;28;20613;-78
2022/04/29 06:31:08;;;;;;;6.07;3.17;;;;;;;12.14;70.11;95165.47;5030994;28;20227;-77
2022/04/29 06:33:36;;;;;;;3.53;2.80;;;;;;;12.27;69.85;95170.72;5030714;28;20208;-77
2022/04/29 06:36:05;;;;;;;3.88;3.22;;;;;;;12.62;68.82;95173.28;5030469;28;20204;-78
2022/04/29 06:38:32;;;;;;;3.90;2.00;;;;;;;12.89;67.81;95170.09;5017181;28;20307;-77
2022/04/29 06:40:59;;;;;;;3.72;2.35;;;;;;;12.83;67.55;95166.00;5030663;28;20235;-78
2022/04/29 06:43:28;;;;;;;3.97;2.67;;;;;;;13.04;67.10;95161.38;5016940;28;20236;-72
2022/04/29 06:45:56;;;;;;;4.22;2.55;;;;;;;13.16;66.96;95155.25;5030500;28;20311;-77
2022/04/29 06:48:23;;;;;;;5.03;3.08;;;;;;;13.12;66.92;95167.88;5030449;28;20208;-78
2022/04/29 06:50:50;;;;;;;9.77;6.35;;;;;;;13.77;65.53;95156.38;5030854;28;20295;-78
2022/04/29 06:53:17;;;;;;;6.53;3.90;;;;;;;13.90;64.73;95157.19;5030736;28;20262;-77
2022/04/29 06:55:43;;;;;;;5.28;3.42;;;;;;;13.85;64.80;95151.94;5030786;28;20590;-76
2022/04/29 06:58:10;;;;;;;6.32;3.45;;;;;;;14.37;63.91;95162.28;5030641;28;20200;-77
2022/04/29 07:00:40;;;;;;;9.80;6.82;;;;;;;14.82;62.57;95156.81;5029913;28;20734;-78
2022/04/29 07:03:08;;;;;;;5.03;3.20;;;;;;;14.61;62.80;95156.94;5030505;28;20200;-79
2022/04/29 07:05:38;;;;;;;4.47;3.13;;;;;;;14.53;62.65;95152.38;5030906;28;20274;-80
2022/04/29 07:08:05;;;;;;;5.88;3.38;;;;;;;14.44;62.46;95149.75;5030329;28;20227;-78
2022/04/29 07:10:32;;;;;;;5.72;3.50;;;;;;;14.23;63.28;95157.97;5030789;28;20201;-78
2022/04/29 07:12:59;;;;;;;5.18;3.33;;;;;;;14.85;61.68;95145.22;5030267;28;20211;-79
2022/04/29 07:15:26;;;;;;;8.65;4.32;;;;;;;15.15;61.22;95148.50;5032285;28;20787;-79
2022/04/29 07:17:53;;;;;;;5.85;3.67;;;;;;;14.94;60.79;95143.97;5034064;28;20319;-74
2022/04/29 07:20:21;;;;;;;4.25;3.10;;;;;;;15.44;59.73;95140.03;5034377;28;20232;-77
2022/04/29 07:22:49;;;;;;;5.57;3.58;;;;;;;15.50;58.87;95133.16;5033918;28;20290;-83
2022/04/29 07:25:16;;;;;;;5.45;3.15;;;;;;;15.64;58.67;95139.06;5043589;28;20196;-79
2022/04/29 07:27:43;;;;;;;8.13;5.47;;;;;;;15.67;57.00;95136.78;5034188;28;20230;-77
2022/04/29 07:30:11;;;;;;;8.88;5.93;;;;;;;15.66;57.31;95140.66;5033476;28;20675;-77
2022/04/29 07:32:38;;;;;;;3.90;2.58;;;;;;;16.12;55.45;95140.00;5034187;28;20217;-77
2022/04/29 07:43:21;;;;;;;9.63;5.60;;;;;;;15.85;56.91;95132.63;5033302;28;20235;-79
2022/04/29 07:45:51;;;;;;;8.15;5.95;;;;;;;15.35;57.42;95136.59;5033526;28;20216;-78
2022/04/29 07:48:18;;;;;;;6.90;4.97;;;;;;;15.18;55.50;95142.31;5020386;28;20245;-74
2022/04/29 07:50:45;;;;;;;7.80;5.40;;;;;;;15.29;56.69;95143.47;5033545;28;20208;-79
2022/04/29 07:53:14;;;;;;;7.55;4.97;;;;;;;15.56;56.33;95137.28;5033297;28;20200;-82
2022/04/29 07:55:41;;;;;;;6.68;4.70;;;;;;;15.77;55.48;95136.28;5033255;28;20236;-74
2022/04/29 07:58:09;;;;;;;7.85;4.72;;;;;;;15.77;56.29;95139.00;5032902;28;20626;-78
2022/04/29 08:00:37;;;;;;;8.38;5.30;;;;;;;16.13;54.45;95133.34;5028715;28;20278;-79
2022/04/29 08:03:04;;;;;;;6.78;4.63;;;;;;;15.74;53.74;95136.97;5033013;28;20200;-77
2022/04/29 08:05:31;;;;;;;5.90;4.57;;;;;;;15.92;54.35;95127.34;5033752;28;20212;-77
2022/04/29 08:08:00;;;;;;;7.70;5.03;;;;;;;16.17;54.70;95137.00;5033109;28;20274;-79
2022/04/29 08:10:29;;;;;;;6.63;4.90;;;;;;;15.60;54.13;95129.97;5032244;28;20239;-78
2022/04/29 08:12:57;;;;;;;9.45;5.32;;;;;;;15.15;56.82;95132.13;5032816;28;20247;-78
2022/04/29 08:15:25;;;;;;;8.95;5.10;;;;;;;15.21;57.65;95136.19;5033210;28;20208;-77
2022/04/29 08:17:52;;;;;;;6.55;4.60;;;;;;;15.39;57.16;95137.53;5032313;28;20289;-77
2022/04/29 08:20:18;;;;;;;6.60;4.72;;;;;;;15.52;56.72;95130.88;5033073;28;20201;-78
2022/04/29 08:22:45;;;;;;;6.45;4.68;;;;;;;15.70;55.11;95122.44;5032390;28;20204;-78
2022/04/29 08:25:12;;;;;;;7.60;4.72;;;;;;;15.72;56.22;95120.91;5042753;28;20223;-78
2022/04/29 08:27:41;;;;;;;7.72;5.50;;;;;;;15.24;56.62;95121.84;5031502;28;20213;-79
2022/04/29 08:30:09;;;;;;;6.90;5.03;;;;;;;15.33;56.77;95133.44;5033033;28;20570;-78
2022/04/29 08:32:40;;;;;;;9.80;5.63;;;;;;;15.73;56.27;95125.25;5032664;28;20242;-78
2022/04/29 08:35:09;;;;;;;7.68;5.30;;;;;;;15.34;56.64;95137.75;5033099;28;20192;-77
2022/04/29 08:37:37;;;;;;;6.55;4.72;;;;;;;15.33;55.06;95135.34;5031967;28;20706;-76
2022/04/29 08:40:05;;;;;;;7.55;4.88;;;;;;;15.43;55.65;95123.97;5031675;28;20575;-80
2022/04/29 08:42:37;;;;;;;7.82;5.45;;;;;;;15.62;56.11;95122.22;5031843;28;20641;-79
2022/04/29 08:45:07;;;;;;;6.55;4.85;;;;;;;15.68;54.21;95120.03;5019190;28;20236;-73
2022/04/29 08:47:36;;;;;;;9.05;6.00;;;;;;;14.89;56.45;95125.09;5032064;28;20600;-77
2022/04/29 08:50:04;;;;;;;6.90;4.93;;;;;;;15.39;54.85;95120.34;5032372;28;20542;-77
2022/04/29 08:52:31;;;;;;;6.93;4.57;;;;;;;15.29;54.66;95124.34;5031843;28;20208;-76
2022/04/29 09:00:31;;;;;;;6.55;4.18;;;;;;;16.09;53.04;95110.63;5032132;28;20204;-77
2022/04/29 09:03:00;;;;;;;7.32;3.85;;;;;;;16.42;52.76;95107.56;5019804;28;20255;-76
2022/04/29 09:05:27;;;;;;;5.05;3.38;;;;;;;16.29;50.35;95104.09;5032426;28;20212;-75
2022/04/29 09:07:57;;;;;;;6.93;4.68;;;;;;;16.56;50.66;95098.91;5032469;28;20224;-77
2022/04/29 09:10:27;;;;;;;6.47;4.28;;;;;;;15.72;51.49;95107.25;5031985;28;20206;-74
2022/04/29 09:12:55;;;;;;;6.07;4.05;;;;;;;15.78;50.96;95105.09;5031927;28;20292;-77
2022/04/29 09:15:23;;;;;;;5.55;3.97;;;;;;;16.70;48.97;95091.06;5032313;28;20208;-78
2022/04/29 09:17:53;;;;;;;8.10;5.22;;;;;;;16.66;49.22;95095.69;5031638;28;20234;-77
2022/04/29 09:20:21;;;;;;;11.25;4.65;;;;;;;16.63;49.06;95096.38;5045905;28;20201;-77
2022/04/29 09:22:52;;;;;;;7.05;4.72;;;;;;;15.95;50.72;95096.59;5032161;28;20293;-81
2022/04/29 09:25:19;;;;;;;5.50;4.10;;;;;;;16.51;49.65;95088.25;5041617;28;20199;-79
2022/04/29 09:27:57;;;;;;;5.95;4.20;;;;;;;17.12;49.47;95085.78;5031793;28;20205;-78
2022/04/29 09:30:38;;;;;;;5.25;3.72;;;;;;;17.02;48.67;95092.63;5018543;28;20203;-80
2022/04/29 09:33:08;;;;;;;5.88;4.10;;;;;;;16.99;49.27;95087.84;5031161;28;20220;-79
2022/04/29 09:35:40;;;;;;;6.10;4.18;;;;;;;16.67;48.27;95097.28;5031489;28;20207;-74
2022/04/29 09:40:53;;;;;;;5.55;4.15;;;;;;;16.22;51.24;95094.94;5031362;28;20342;-77
2022/04/29 09:43:32;;;;;;;6.95;4.55;;;;;;;16.60;50.34;95091.59;5030754;28;20695;-79
2022/04/29 09:46:10;;;;;;;5.30;3.90;;;;;;;16.61;49.78;95104.13;5031343;28;20240;-75
2022/04/29 09:48:54;;;;;;;6.38;4.32;;;;;;;16.72;49.06;95094.25;5031271;28;20204;-77
2022/04/29 09:51:49;;;;;;;6.18;5.13;;;;;;;16.41;49.40;95099.69;5031089;28;20200;-82
2022/04/29 09:54:22;;;;;;;6.90;5.00;;;;;;;17.12;48.33;95093.19;5031110;28;20598;-75
2022/04/29 09:57:04;;;;;;;5.45;3.58;;;;;;;16.79;48.84;95099.09;5031491;28;20200;-75
2022/04/29 09:59:33;;;;;;;7.50;5.30;;;;;;;17.04;48.07;95090.31;5030840;28;20192;-80
2022/04/29 10:02:01;;;;;;;7.25;4.93;;;;;;;17.53;47.48;95078.03;5031595;28;20247;-78
2022/04/29 10:04:34;;;;;;;4.88;3.58;;;;;;;17.59;46.58;95084.81;5030578;28;20228;-75
2022/04/29 10:07:04;;;;;;;4.50;3.53;;;;;;;16.76;47.34;95089.66;5031254;28;20250;-73
2022/04/29 10:09:33;;;;;;;5.18;3.90;;;;;;;17.32;47.10;95078.41;5030867;28;20242;-79
2022/04/29 10:12:02;;;;;;;6.22;4.60;;;;;;;18.25;45.50;95076.31;5031008;28;20236;-79
2022/04/29 10:14:30;;;;;;;4.85;3.83;;;;;;;17.68;45.26;95075.25;5030451;28;20206;-81
2022/04/29 10:22:41;;;;;;;5.38;4.07;;;;;;;18.01;44.29;95060.22;5020232;28;20378;-77
2022/04/29 10:25:10;;;;;;;5.30;3.90;;;;;;;18.53;44.26;95058.75;5041230;28;20349;-79
2022/04/29 10:27:39;;;;;;;4.68;3.88;;;;;;;19.81;41.42;95051.16;5030612;28;20204;-77
2022/04/29 10:30:07;;;;;;;6.32;3.92;;;;;;;19.01;42.11;95052.44;5030723;28;20570;-82
2022/04/29 10:33:05;;;;;;;8.43;4.32;;;;;;;19.46;42.33;95050.69;5030557;28;20200;-78
2022/04/29 10:35:56;;;;;;;5.75;3.90;;;;;;;19.10;43.45;95050.25;5018624;28;20193;-77
2022/04/29 10:38:28;;;;;;;9.90;4.10;;;;;;;19.12;43.55;95053.41;5030956;28;20242;-78
2022/04/29 10:41:10;;;;;;;5.43;4.07;;;;;;;18.37;44.12;95056.13;5030931;28;20206;-71
2022/04/29 10:43:38;;;;;;;5.38;3.88;;;;;;;17.52;45.68;95062.75;5018007;28;20299;-70
2022/04/29 10:46:31;;;;;;;8.82;5.78;;;;;;;17.83;45.38;95059.06;5030254;28;20295;-78
2022/04/29 10:48:58;;;;;;;6.15;4.07;;;;;;;17.56;45.14;95050.72;5028050;28;20671;-72
2022/04/29 10:51:48;;;;;;;6.25;3.90;;;;;;;17.66;45.80;95050.16;5034150;28;20667;-76
2022/04/29 10:54:46;;;;;;;5.65;4.30;;;;;;;17.48;45.14;95049.00;5034996;28;20203;-76
2022/04/29 10:57:14;;;;;;;5.32;4.20;;;;;;;17.97;45.54;95042.91;5034299;28;20204;-78
2022/04/29 11:00:00;;;;;;;5.78;4.20;;;;;;;19.13;43.51;95027.50;5020659;28;20204;-79
2022/04/29 11:02:28;;;;;;;6.95;4.03;;;;;;;17.86;45.03;95036.44;5033935;28;20301;-75
2022/04/29 11:04:56;;;;;;;5.13;3.30;;;;;;;17.13;46.79;95040.03;5034439;28;20295;-79
2022/04/29 11:07:47;;;;;;;5.43;3.70;;;;;;;17.24;47.15;95036.34;5033872;28;20773;-74
2022/04/29 11:10:17;;;;;;;5.80;4.38;;;;;;;17.06;46.93;95029.75;5033644;28;20192;-72
2022/04/29 11:12:57;;;;;;;6.97;4.43;;;;;;;17.51;46.60;95018.13;5034346;28;20189;-79
2022/04/29 11:15:39;;;;;;;6.50;4.70;;;;;;;18.61;45.20;95020.09;5034148;28;20204;-78
2022/04/29 11:18:19;;;;;;;5.85;4.47;;;;;;;19.21;43.68;95006.44;5034335;28;20203;-79
2022/04/29 11:20:47;;;;;;;6.47;4.68;;;;;;;20.43;41.70;95004.59;5022453;28;20192;-80
2022/04/29 11:26:15;;;;;;;6.50;4.57;;;;;;;19.54;43.00;95000.19;4958488;28;20246;-80
2022/04/29 11:28:42;;;;;;;5.57;4.65;;;;;;;18.93;43.57;95012.31;5021256;28;20207;-76
2022/04/29 11:31:11;;;;;;;5.28;3.83;;;;;;;17.75;45.74;94998.66;5034397;28;20244;-70
2022/04/29 11:33:39;;;;;;;6.88;4.80;;;;;;;18.11;45.26;95004.75;5033649;28;20212;-77
2022/04/29 11:36:09;;;;;;;9.32;5.15;;;;;;;18.47;45.24;94995.94;5033704;28;20225;-78
2022/04/29 11:38:45;;;;;;;6.20;4.60;;;;;;;18.28;45.43;95001.53;5033744;28;20211;-78
2022/04/29 11:41:19;;;;;;;7.45;4.53;;;;;;;18.45;45.56;94992.75;5037422;28;20196;-74
2022/04/29 11:43:47;;;;;;;5.90;4.70;;;;;;;18.58;44.05;94984.34;5042076;28;20706;-72
2022/04/29 11:46:15;;;;;;;6.90;4.65;;;;;;;18.64;44.60;94991.13;5033346;28;20262;-77
2022/04/29 11:48:51;;;;;;;5.45;4.80;;;;;;;18.10;44.56;94982.03;5045313;28;20606;-75
2022/04/29 11:51:18;;;;;;;6.32;4.53;;;;;;;17.10;46.29;95010.63;5047334;28;20204;-78
2022/04/29 11:53:59;;;;;;;5.57;4.60;;;;;;;17.13;46.44;94993.50;5033467;28;20208;-72
2022/04/29 11:56:35;;;;;;;8.77;6.97;;;;;;;17.02;47.01;94983.13;5022402;28;20580;-75
2022/04/29 11:59:04;;;;;;;5.95;4.68;;;;;;;17.69;46.07;94975.44;5031933;28;20212;-83
2022/04/29 12:01:31;;;;;;;7.90;4.72;;;;;;;18.06;44.95;94961.19;5040446;28;20203;-78
2022/04/29 12:03:58;;;;;;;6.35;4.13;;;;;;;18.54;44.51;94972.53;5022341;28;20233;-78
2022/04/29 12:06:26;;;;;;;5.72;4.38;;;;;;;19.10;44.01;94978.03;5032962;28;20817;-79
2022/04/29 12:08:52;;;;;;;7.53;4.68;;;;;;;19.53;42.09;94968.38;5032599;28;20207;-77
2022/04/29 12:11:29;;;;;;;5.88;3.95;;;;;;;19.16;41.86;94971.81;5033364;28;20204;-74
2022/04/29 12:13:56;;;;;;;4.88;4.03;;;;;;;18.49;43.18;94965.38;5032552;28;20208;-77
2022/04/29 12:16:24;;;;;;;13.20;7.38;;;;;;;18.76;43.01;94971.69;5031823;28;20224;-77